Home   Weather   Oakland City   Past weeks
Flag for USA

Past Weather in Oakland City, Indiana, USA — Yesterday and Last 2 Weeks

Currently: 28 °F. Overcast. (Weather station: Mount Carmel Municipal Airport, USA). See more current weather

Past Weather in Oakland City — Graph

°F

Oakland City Temperature Yesterday

Maximum temperature yesterday: 38 °F (at 2:35 pm)
Minimum temperature yesterday: 23 °F (at 6:55 am)
Average temperature yesterday: 29 °F

High & Low Weather Summary for the Past Weeks

 TemperatureHumidityPressure
High51 °F (Jan 12, 2:35 pm)98% (Jan 9, 6:55 am)30.61 "Hg (Jan 9, 6:55 am)
Low7 °F (Jan 7, 5:35 am)49% (Jan 9, 3:35 pm)29.75 "Hg (Jan 16, 6:55 pm)
Average30 °F73%30.17 "Hg
* Reported Jan 2 4:15 am — Jan 17 4:15 am, Oakland City. Weather by CustomWeather, © 2022

Note: Actual official high and low records may vary slightly from our data, if they occured in-between our weather recording intervals... More about our weather records

Oakland City Weather History for the Previous 24 Hours

Scroll right to see more
 ConditionsComfort  
Time TempWeatherWind HumidityBarometerVisibility
4:15 am
Mon, Jan 17
28 °FOvercast.16 mph78%29.78 "Hg10 mi
3:55 am28 °FOvercast.14 mph79%29.77 "Hg10 mi
3:35 am28 °FOvercast.17 mph78%29.77 "Hg10 mi
3:15 am28 °FOvercast.14 mph78%29.76 "Hg10 mi
2:55 am28 °FOvercast.16 mph80%29.76 "Hg10 mi
2:35 am28 °FOvercast.15 mph83%29.76 "Hg7 mi
1:55 am28 °FLight snow. Overcast.10 mph88%29.75 "Hg2 mi
1:15 am28 °FLight snow. Mostly cloudy.13 mph90%29.75 "Hg1 mi
12:55 am28 °FLight snow. Mostly cloudy.12 mph90%29.75 "Hg1 mi
12:15 am28 °FLight snow. Mostly cloudy.14 mph89%29.75 "Hg1 mi
11:55 pm
Sun, Jan 16
29 °FLight snow. Mostly cloudy.14 mph86%29.75 "Hg2 mi
11:35 pm29 °FLight snow. Mostly cloudy.14 mph81%29.75 "Hg2 mi
10:55 pm31 °FMostly cloudy.10 mph70%29.75 "Hg10 mi
10:15 pm30 °FMostly cloudy.10 mph73%29.76 "Hg10 mi
9:55 pm30 °FOvercast.12 mph75%29.76 "Hg10 mi
9:35 pm30 °FMostly cloudy.12 mph74%29.77 "Hg10 mi
9:15 pm31 °FMostly cloudy.15 mph73%29.77 "Hg10 mi
8:55 pm31 °FMostly cloudy.16 mph75%29.78 "Hg10 mi
8:35 pm31 °FPartly cloudy.10 mph73%29.77 "Hg10 mi
8:15 pm31 °FPartly cloudy.9 mph71%29.76 "Hg10 mi
7:55 pm31 °FClear.12 mph72%29.77 "Hg10 mi
7:35 pm31 °FClear.14 mph70%29.76 "Hg10 mi
7:15 pm31 °FClear.9 mph71%29.76 "Hg10 mi
6:55 pm31 °FClear.10 mph70%29.75 "Hg10 mi
6:15 pm32 °FClear.12 mph69%29.76 "Hg10 mi
5:55 pm32 °FClear.12 mph67%29.76 "Hg10 mi
5:35 pm32 °FClear.9 mph69%29.77 "Hg10 mi
5:15 pm32 °FClear.7 mph69%29.77 "Hg10 mi
4:55 pm33 °FClear.10 mph67%29.76 "Hg10 mi
4:35 pm33 °FSunny.10 mph64%29.76 "Hg10 mi
3:55 pm35 °FSunny.14 mph59%29.77 "Hg10 mi
3:35 pm36 °FSunny.14 mph57%29.77 "Hg10 mi
2:55 pm37 °FSunny.13 mph60%29.76 "Hg10 mi
2:35 pm38 °FSunny.12 mph55%29.77 "Hg10 mi
2:15 pm37 °FSunny.10 mph57%29.77 "Hg10 mi
1:55 pm37 °FSunny.12 mph57%29.78 "Hg10 mi
12:15 pm35 °FSunny.13 mph61%29.81 "Hg10 mi
11:55 am34 °FSunny.9 mph63%29.83 "Hg10 mi
11:35 am33 °FSunny.12 mph66%29.85 "Hg10 mi
11:15 am32 °FSunny.10 mph65%29.87 "Hg10 mi
10:55 am31 °FSunny.7 mph65%29.88 "Hg10 mi
10:35 am30 °FSunny.6 mph67%29.91 "Hg10 mi
9:55 am28 °FSunny.9 mph69%29.93 "Hg10 mi
9:15 am27 °FSunny.7 mph70%29.94 "Hg10 mi
8:35 am25 °FSunny.10 mph74%29.95 "Hg10 mi
7:55 am24 °FSunny.9 mph78%29.96 "Hg10 mi
7:35 am23 °FSunny.7 mph80%29.98 "Hg10 mi
7:15 am23 °FSunny.6 mph80%29.99 "Hg10 mi
6:55 am23 °FClear.6 mph80%29.99 "Hg10 mi
6:15 am24 °FClear.6 mph79%29.99 "Hg10 mi
5:55 am24 °FClear.6 mph78%30.00 "Hg10 mi
5:35 am24 °FClear.7 mph77%30.01 "Hg10 mi
5:15 am24 °FClear.8 mph77%30.02 "Hg10 mi
Weather by CustomWeather, © 2022

See weather overview